Time;durP1;ratioP1;P1;durP2;ratioP2;P2;SDS_P1;SDS_P2;PMS_P1;PMS_P2;Temp;Humidity;BMP_temperature;BMP_pressure;BME280_temperature;BME280_humidity;BME280_pressure;Samples;Min_cycle;Max_cycle;Signal;HPM_P1;HPM_P2
2023/12/31 00:00:10;;;;;;;6.85;2.03;;;8.70;99.90;;;;;;4976563;28;20026;-64
2023/12/31 00:02:39;;;;;;;7.13;3.33;;;8.80;99.90;;;;;;4980584;28;20030;-65
2023/12/31 00:05:05;;;;;;;4.70;1.92;;;8.80;99.90;;;;;;4982105;28;20027;-64
2023/12/31 00:07:31;;;;;;;5.38;2.00;;;8.80;99.90;;;;;;4981745;28;20038;-64
2023/12/31 00:09:57;;;;;;;9.65;2.33;;;8.80;99.90;;;;;;4977422;28;20035;-65
2023/12/31 00:12:23;;;;;;;2.45;1.38;;;8.70;99.90;;;;;;4980402;28;20089;-65
2023/12/31 00:14:48;;;;;;;5.13;2.33;;;8.70;99.90;;;;;;4984917;28;20026;-64
2023/12/31 00:17:14;;;;;;;5.28;1.90;;;8.60;99.90;;;;;;4983198;28;20141;-65
2023/12/31 00:19:40;;;;;;;5.25;1.80;;;8.60;99.90;;;;;;4981121;28;20056;-65
2023/12/31 00:22:07;;;;;;;5.95;1.73;;;8.40;99.90;;;;;;4977150;28;20026;-65
2023/12/31 00:24:33;;;;;;;5.15;2.08;;;8.40;99.90;;;;;;4977320;28;20022;-64
2023/12/31 00:26:58;;;;;;;5.72;1.80;;;8.30;99.90;;;;;;4979682;28;20026;-65
2023/12/31 00:29:24;;;;;;;9.60;2.20;;;8.30;99.90;;;;;;4983077;28;20092;-64
2023/12/31 00:31:50;;;;;;;8.43;2.70;;;8.20;99.90;;;;;;4978887;28;20037;-63
2023/12/31 00:34:16;;;;;;;5.75;1.98;;;8.20;99.90;;;;;;4977449;28;20519;-63
2023/12/31 00:36:42;;;;;;;4.63;1.92;;;8.20;99.90;;;;;;4981657;28;20041;-64
2023/12/31 00:39:07;;;;;;;6.68;2.50;;;8.20;99.90;;;;;;4980829;28;20034;-64
2023/12/31 00:41:33;;;;;;;6.38;1.80;;;8.20;99.90;;;;;;4981678;28;20034;-65
2023/12/31 00:43:59;;;;;;;5.43;1.65;;;8.10;99.90;;;;;;4977848;28;20034;-64
2023/12/31 00:46:25;;;;;;;5.57;1.80;;;8.10;99.90;;;;;;4986142;28;20029;-65
2023/12/31 00:48:50;;;;;;;3.38;1.80;;;8.10;99.90;;;;;;4982741;28;20487;-65
2023/12/31 00:51:16;;;;;;;5.85;2.20;;;8.00;99.90;;;;;;4987151;28;20026;-65
2023/12/31 00:53:42;;;;;;;3.75;1.98;;;8.00;99.90;;;;;;4988182;28;20034;-65
2023/12/31 00:56:11;;;;;;;6.20;1.98;;;7.90;99.90;;;;;;4986289;28;20062;-65
2023/12/31 00:58:37;;;;;;;4.13;1.90;;;7.90;99.90;;;;;;4985499;28;20113;-65
2023/12/31 01:01:03;;;;;;;4.75;2.00;;;7.80;99.90;;;;;;4981743;28;20105;-65
2023/12/31 01:03:30;;;;;;;5.60;2.15;;;7.70;99.90;;;;;;4988121;28;20149;-65
2023/12/31 01:06:03;;;;;;;4.95;1.85;;;7.70;99.90;;;;;;4983881;28;20772;-65
2023/12/31 01:08:30;;;;;;;6.15;1.83;;;7.70;99.90;;;;;;4985054;28;20153;-65
2023/12/31 01:10:56;;;;;;;2.80;1.60;;;7.70;99.90;;;;;;4982782;28;20138;-65
2023/12/31 01:13:21;;;;;;;3.55;1.40;;;7.60;99.90;;;;;;4981105;28;20026;-65
2023/12/31 01:15:47;;;;;;;2.15;1.40;;;7.60;99.90;;;;;;4987617;28;20034;-65
2023/12/31 01:18:13;;;;;;;6.50;1.77;;;7.60;99.90;;;;;;4985354;28;20341;-65
2023/12/31 01:20:39;;;;;;;4.35;1.80;;;7.50;99.90;;;;;;4984101;28;20033;-65
2023/12/31 01:23:06;;;;;;;3.92;1.42;;;7.50;99.90;;;;;;4979431;28;20741;-65
2023/12/31 01:25:32;;;;;;;5.07;1.50;;;7.50;99.90;;;;;;4985143;28;20108;-65
2023/12/31 01:27:58;;;;;;;5.88;1.92;;;7.50;99.90;;;;;;4985165;28;20569;-65
2023/12/31 01:30:23;;;;;;;5.45;1.65;;;7.50;99.90;;;;;;4987281;28;20430;-65
2023/12/31 01:32:50;;;;;;;5.50;1.50;;;7.40;99.90;;;;;;4982963;28;20132;-65
2023/12/31 01:35:18;;;;;;;7.40;1.85;;;7.40;99.90;;;;;;4980866;28;20034;-65
2023/12/31 01:37:45;;;;;;;3.10;1.58;;;7.30;99.90;;;;;;4977219;28;20022;-65
2023/12/31 01:40:11;;;;;;;4.72;1.55;;;7.30;99.90;;;;;;4984240;28;20078;-65
2023/12/31 01:42:37;;;;;;;2.78;1.55;;;7.30;99.90;;;;;;4979253;28;20108;-65
2023/12/31 01:45:04;;;;;;;8.20;2.40;;;7.30;99.90;;;;;;4981550;28;20109;-65
2023/12/31 01:47:35;;;;;;;6.93;2.35;;;7.30;99.90;;;;;;4980359;28;20026;-65
2023/12/31 01:50:03;;;;;;;6.13;1.88;;;7.20;99.90;;;;;;4984071;28;20034;-65
2023/12/31 01:52:30;;;;;;;8.57;2.17;;;7.20;99.90;;;;;;4986859;28;20049;-64
2023/12/31 01:55:04;;;;;;;7.07;1.40;;;7.20;99.90;;;;;;4983005;28;20033;-65
2023/12/31 01:57:31;;;;;;;6.85;1.80;;;7.20;99.90;;;;;;4983292;28;20376;-65
2023/12/31 01:59:59;;;;;;;2.38;1.70;;;7.20;99.90;;;;;;4986125;28;20022;-65
2023/12/31 02:02:26;;;;;;;5.38;1.75;;;7.20;99.90;;;;;;4985971;28;20649;-65
2023/12/31 02:04:52;;;;;;;5.72;1.85;;;7.20;99.90;;;;;;4983992;28;20129;-65
2023/12/31 02:07:18;;;;;;;2.58;1.40;;;7.20;99.90;;;;;;4983134;28;20113;-65
2023/12/31 02:09:44;;;;;;;4.65;1.50;;;7.30;99.90;;;;;;4982130;28;20041;-65
2023/12/31 02:12:11;;;;;;;6.47;1.70;;;7.30;99.90;;;;;;4978607;28;20129;-65
2023/12/31 02:14:36;;;;;;;5.30;2.00;;;7.30;99.90;;;;;;4980703;28;20434;-65
2023/12/31 02:17:02;;;;;;;7.57;1.67;;;7.30;99.90;;;;;;4985221;28;20038;-65
2023/12/31 02:19:28;;;;;;;5.75;1.80;;;7.30;99.90;;;;;;4988299;28;20030;-65
2023/12/31 02:21:54;;;;;;;5.93;2.00;;;7.30;99.90;;;;;;4983392;28;20037;-67
2023/12/31 02:24:24;;;;;;;6.10;2.08;;;7.30;99.90;;;;;;4981573;28;20026;-67
2023/12/31 02:26:50;;;;;;;5.55;1.52;;;7.30;99.90;;;;;;4986768;28;20041;-66
2023/12/31 02:29:16;;;;;;;5.40;2.25;;;7.30;99.90;;;;;;4988214;28;20038;-66
2023/12/31 02:31:42;;;;;;;6.40;1.73;;;7.30;99.90;;;;;;4986537;28;20038;-67
2023/12/31 02:34:07;;;;;;;7.07;2.10;;;7.20;99.90;;;;;;4988199;28;20427;-66
2023/12/31 02:36:33;;;;;;;9.73;1.77;;;7.30;99.90;;;;;;4987964;28;20073;-67
2023/12/31 02:38:59;;;;;;;4.75;1.80;;;7.30;99.90;;;;;;4986226;28;20053;-67
2023/12/31 02:41:25;;;;;;;9.63;1.75;;;7.30;99.90;;;;;;4986397;28;20066;-67
2023/12/31 02:43:51;;;;;;;5.60;1.40;;;7.20;99.90;;;;;;4981227;28;20030;-67
2023/12/31 02:46:17;;;;;;;4.47;1.80;;;7.20;99.90;;;;;;4987519;28;20768;-67
2023/12/31 02:48:43;;;;;;;4.70;1.58;;;7.20;99.90;;;;;;4987741;28;20030;-67
2023/12/31 02:51:09;;;;;;;4.75;1.88;;;7.20;99.90;;;;;;4987453;28;20073;-67
2023/12/31 02:53:34;;;;;;;6.55;1.95;;;7.20;99.90;;;;;;4985895;28;20054;-67
2023/12/31 02:56:00;;;;;;;3.90;2.15;;;7.20;99.90;;;;;;4982908;28;20061;-67
2023/12/31 02:58:26;;;;;;;6.57;1.92;;;7.10;99.90;;;;;;4980170;28;20487;-67
2023/12/31 03:00:52;;;;;;;5.18;1.95;;;7.10;99.90;;;;;;4986105;28;20045;-67
2023/12/31 03:03:17;;;;;;;6.63;1.63;;;7.10;99.90;;;;;;4986135;28;20054;-67
2023/12/31 03:05:44;;;;;;;5.25;1.90;;;7.10;99.90;;;;;;4981795;28;20030;-67
2023/12/31 03:08:10;;;;;;;3.60;1.60;;;7.10;99.90;;;;;;4985589;28;20045;-67
2023/12/31 03:10:36;;;;;;;3.30;1.88;;;7.10;99.90;;;;;;4985098;28;20439;-67
2023/12/31 03:13:02;;;;;;;3.92;1.35;;;7.00;99.90;;;;;;4983130;28;20414;-67
2023/12/31 03:15:27;;;;;;;5.03;1.60;;;7.00;99.90;;;;;;4982362;28;20073;-67
2023/12/31 03:17:53;;;;;;;6.10;1.90;;;7.00;99.90;;;;;;4974409;28;20048;-67
2023/12/31 03:20:19;;;;;;;9.55;1.85;;;7.00;99.90;;;;;;4982284;28;20117;-67
2023/12/31 03:22:46;;;;;;;4.32;1.83;;;7.00;99.90;;;;;;4977757;28;20760;-67
2023/12/31 03:25:13;;;;;;;4.18;1.40;;;6.90;99.90;;;;;;4981266;28;20559;-67
2023/12/31 03:27:39;;;;;;;4.70;1.80;;;6.90;99.90;;;;;;4981559;28;20037;-66
2023/12/31 03:30:06;;;;;;;7.88;2.33;;;6.90;99.90;;;;;;4985824;28;20068;-65
2023/12/31 03:32:31;;;;;;;6.15;1.92;;;7.00;99.90;;;;;;4982179;28;20035;-67
2023/12/31 03:34:58;;;;;;;4.90;1.90;;;7.00;99.90;;;;;;4976286;28;20034;-67
2023/12/31 03:37:24;;;;;;;5.93;1.42;;;7.00;99.90;;;;;;4976104;28;20027;-67
2023/12/31 03:39:51;;;;;;;4.25;1.48;;;6.90;99.90;;;;;;4978814;28;20068;-67
2023/12/31 03:42:18;;;;;;;6.55;1.80;;;7.00;99.90;;;;;;4986675;28;20117;-67
2023/12/31 03:44:46;;;;;;;4.80;2.00;;;6.90;99.90;;;;;;4986817;28;20782;-67
2023/12/31 03:47:12;;;;;;;2.08;1.38;;;7.00;99.90;;;;;;4986499;28;20525;-67
2023/12/31 03:49:38;;;;;;;3.72;1.60;;;7.00;99.90;;;;;;4986616;28;20038;-66
2023/12/31 03:52:04;;;;;;;6.90;1.65;;;7.00;99.90;;;;;;4984913;28;20041;-67
2023/12/31 03:54:30;;;;;;;5.95;1.95;;;6.90;99.90;;;;;;4985261;28;20161;-67
2023/12/31 03:56:56;;;;;;;4.75;1.48;;;7.00;99.90;;;;;;4981998;28;20125;-66
2023/12/31 03:59:22;;;;;;;8.15;1.30;;;7.00;99.90;;;;;;4986393;28;20101;-67
2023/12/31 04:01:48;;;;;;;6.03;2.00;;;7.00;99.90;;;;;;4984854;28;20041;-67
2023/12/31 04:04:15;;;;;;;6.28;2.38;;;7.10;99.90;;;;;;4984809;28;20042;-67
2023/12/31 04:06:44;;;;;;;6.63;1.83;;;7.10;99.90;;;;;;4986723;28;20105;-66
2023/12/31 04:09:11;;;;;;;5.38;1.60;;;7.20;99.90;;;;;;4984785;28;20031;-67
2023/12/31 04:11:37;;;;;;;7.07;2.00;;;7.20;99.90;;;;;;4981559;28;20031;-67
2023/12/31 04:14:03;;;;;;;10.43;2.60;;;7.30;99.90;;;;;;4984084;28;20046;-67
2023/12/31 04:16:29;;;;;;;8.85;2.38;;;7.40;99.90;;;;;;4986086;28;20088;-67
2023/12/31 04:18:55;;;;;;;7.20;2.42;;;7.40;99.90;;;;;;4981051;28;20577;-67
2023/12/31 04:21:21;;;;;;;2.75;1.80;;;7.40;99.90;;;;;;4986253;28;20022;-65
2023/12/31 04:23:47;;;;;;;2.80;2.00;;;7.40;99.90;;;;;;4986227;28;20470;-67
2023/12/31 04:26:12;;;;;;;3.13;1.88;;;7.40;99.90;;;;;;4986235;28;20770;-66
2023/12/31 04:28:38;;;;;;;5.57;1.80;;;7.40;99.90;;;;;;4984726;28;20765;-67
2023/12/31 04:31:04;;;;;;;6.90;2.38;;;7.40;99.90;;;;;;4986122;28;20402;-67
2023/12/31 04:33:30;;;;;;;5.32;1.75;;;7.30;99.90;;;;;;4985964;28;20034;-67
2023/12/31 04:35:55;;;;;;;4.57;1.73;;;7.30;99.90;;;;;;4981426;28;20027;-67
2023/12/31 04:38:21;;;;;;;2.85;1.83;;;7.40;99.90;;;;;;4986062;28;20049;-67
2023/12/31 04:40:47;;;;;;;8.32;1.85;;;7.50;99.90;;;;;;4981317;28;20349;-67
2023/12/31 04:43:13;;;;;;;7.05;1.80;;;7.50;99.90;;;;;;4977178;28;20103;-67
2023/12/31 04:45:39;;;;;;;5.50;1.98;;;7.60;99.90;;;;;;4985815;28;20034;-67
2023/12/31 04:48:05;;;;;;;4.38;1.80;;;7.50;99.90;;;;;;4984697;28;20034;-67
2023/12/31 04:50:31;;;;;;;5.47;2.13;;;7.60;99.90;;;;;;4981040;28;20043;-66
2023/12/31 04:52:56;;;;;;;4.93;1.42;;;7.70;99.90;;;;;;4982832;28;20484;-66
2023/12/31 04:55:22;;;;;;;4.13;1.48;;;7.70;99.90;;;;;;4986046;28;20836;-67
2023/12/31 04:57:49;;;;;;;6.95;1.73;;;7.70;99.90;;;;;;4984652;28;20560;-66
2023/12/31 05:00:16;;;;;;;2.38;1.60;;;7.70;99.90;;;;;;4985679;28;20105;-67
2023/12/31 05:02:43;;;;;;;3.88;1.88;;;7.60;99.90;;;;;;4984415;28;20035;-67
2023/12/31 05:05:08;;;;;;;5.28;1.60;;;7.60;99.90;;;;;;4986155;28;20165;-66
2023/12/31 05:07:34;;;;;;;8.43;1.77;;;7.60;99.90;;;;;;4985625;28;20434;-67
2023/12/31 05:10:01;;;;;;;7.32;2.55;;;7.70;99.90;;;;;;4979775;28;20035;-66
2023/12/31 05:12:27;;;;;;;7.63;1.88;;;7.60;99.90;;;;;;4985457;28;20036;-67
2023/12/31 05:14:53;;;;;;;2.75;1.50;;;7.60;99.90;;;;;;4985576;28;20558;-67
2023/12/31 05:17:19;;;;;;;5.07;1.65;;;7.60;99.90;;;;;;4985550;28;20038;-67
2023/12/31 05:19:45;;;;;;;3.88;1.40;;;7.70;99.90;;;;;;4985804;28;20121;-67
2023/12/31 05:22:11;;;;;;;5.03;1.67;;;7.70;99.90;;;;;;4985675;28;20038;-67
2023/12/31 05:24:37;;;;;;;2.70;1.70;;;7.70;99.90;;;;;;4985477;28;20033;-67
2023/12/31 05:27:02;;;;;;;3.50;1.50;;;7.70;99.90;;;;;;4981892;28;20023;-67
2023/12/31 05:29:28;;;;;;;3.58;1.60;;;7.70;99.90;;;;;;4983821;28;20540;-67
2023/12/31 05:31:54;;;;;;;3.72;1.70;;;7.70;99.90;;;;;;4985702;28;20030;-65
2023/12/31 05:34:20;;;;;;;7.47;1.83;;;7.70;99.90;;;;;;4989382;28;20050;-67
2023/12/31 05:36:45;;;;;;;8.02;1.55;;;7.70;99.90;;;;;;4989407;28;20023;-67
2023/12/31 05:39:11;;;;;;;3.65;1.63;;;7.70;99.90;;;;;;4988651;28;20399;-67
2023/12/31 05:41:37;;;;;;;4.20;1.08;;;7.70;99.90;;;;;;4988953;28;20045;-67
2023/12/31 05:44:04;;;;;;;2.30;1.48;;;7.80;99.90;;;;;;4988757;28;20027;-66
2023/12/31 05:46:29;;;;;;;1.88;1.30;;;7.80;99.90;;;;;;4988940;28;20037;-67
2023/12/31 05:48:55;;;;;;;3.08;1.38;;;7.80;99.90;;;;;;4988869;28;20034;-67
2023/12/31 05:51:21;;;;;;;4.70;1.80;;;7.90;99.90;;;;;;4988555;28;20037;-66
2023/12/31 05:53:47;;;;;;;4.32;1.40;;;7.90;99.90;;;;;;4988697;28;20149;-65
2023/12/31 05:56:14;;;;;;;2.58;1.15;;;8.00;99.90;;;;;;4988548;28;20129;-67
2023/12/31 05:58:42;;;;;;;3.45;1.27;;;7.90;99.90;;;;;;4988760;28;20041;-66
2023/12/31 06:01:10;;;;;;;5.13;1.40;;;7.90;99.90;;;;;;4988557;28;20038;-67
2023/12/31 06:03:36;;;;;;;1.63;1.38;;;7.90;99.90;;;;;;4988600;28;20030;-67
2023/12/31 06:06:02;;;;;;;2.40;1.50;;;7.90;99.90;;;;;;4988564;28;20038;-66
2023/12/31 06:08:28;;;;;;;3.40;1.60;;;7.90;99.90;;;;;;4988453;28;20030;-67
2023/12/31 06:10:54;;;;;;;1.08;0.98;;;7.90;99.90;;;;;;4982117;28;20030;-67
2023/12/31 06:13:20;;;;;;;3.13;1.05;;;7.90;99.90;;;;;;4982946;28;20137;-67
2023/12/31 06:15:46;;;;;;;2.13;1.50;;;7.90;99.90;;;;;;4983828;28;20177;-67
2023/12/31 06:18:12;;;;;;;5.10;1.20;;;7.90;99.90;;;;;;4988197;28;20133;-67
2023/12/31 06:20:37;;;;;;;5.05;1.40;;;8.00;99.90;;;;;;4988146;28;20062;-67
2023/12/31 06:23:03;;;;;;;8.07;1.70;;;7.90;99.90;;;;;;4988387;28;20644;-67
2023/12/31 06:25:29;;;;;;;2.92;1.33;;;8.00;99.90;;;;;;4988541;28;20517;-67
2023/12/31 06:27:56;;;;;;;3.40;1.20;;;8.00;99.90;;;;;;4987847;28;20037;-67
2023/12/31 06:30:23;;;;;;;2.28;1.20;;;8.00;99.90;;;;;;4979902;28;20089;-67
2023/12/31 06:32:49;;;;;;;4.28;1.60;;;8.00;99.90;;;;;;4968907;28;20069;-67
2023/12/31 06:35:15;;;;;;;3.05;1.20;;;7.90;99.90;;;;;;4979743;28;20145;-67
2023/12/31 06:37:41;;;;;;;5.50;1.25;;;7.90;99.90;;;;;;4986732;28;20121;-67
2023/12/31 06:40:08;;;;;;;3.38;1.20;;;7.90;99.90;;;;;;4980370;28;20030;-67
2023/12/31 06:42:34;;;;;;;3.95;1.70;;;7.80;99.90;;;;;;4987699;28;20030;-66
2023/12/31 06:45:00;;;;;;;1.60;1.02;;;7.80;99.90;;;;;;4987691;28;20834;-67
2023/12/31 06:47:26;;;;;;;2.85;1.15;;;7.80;99.90;;;;;;4987594;28;20023;-67
2023/12/31 06:49:52;;;;;;;2.17;1.10;;;7.80;99.90;;;;;;4987805;28;20709;-67
2023/12/31 06:52:18;;;;;;;3.95;1.40;;;7.80;99.90;;;;;;4987495;28;20041;-67
2023/12/31 06:54:44;;;;;;;6.80;1.38;;;7.80;99.90;;;;;;4987960;28;20491;-65
2023/12/31 06:57:10;;;;;;;3.42;1.02;;;7.80;99.90;;;;;;4987610;28;20117;-67
2023/12/31 06:59:36;;;;;;;2.92;1.00;;;7.90;99.90;;;;;;4987547;28;20045;-66
2023/12/31 07:02:03;;;;;;;1.58;1.30;;;7.90;99.90;;;;;;4984233;28;20085;-67
2023/12/31 07:04:29;;;;;;;4.45;1.30;;;7.90;99.90;;;;;;4987411;28;20033;-67
2023/12/31 07:06:55;;;;;;;2.28;1.00;;;7.80;99.90;;;;;;4987471;28;20035;-67
2023/12/31 07:09:20;;;;;;;3.50;1.40;;;7.90;99.90;;;;;;4979454;28;20034;-67
2023/12/31 07:11:46;;;;;;;5.18;1.08;;;7.90;99.90;;;;;;4987017;28;20491;-67
2023/12/31 07:14:12;;;;;;;4.75;1.52;;;7.90;99.90;;;;;;4986847;28;20068;-67
2023/12/31 07:16:38;;;;;;;4.78;1.35;;;7.90;99.90;;;;;;4977428;28;20034;-67
2023/12/31 07:19:04;;;;;;;1.88;1.02;;;8.00;99.90;;;;;;4987076;28;20038;-66
2023/12/31 07:21:29;;;;;;;2.47;1.10;;;7.90;99.90;;;;;;4986598;28;20685;-66
2023/12/31 07:23:56;;;;;;;3.53;1.02;;;7.90;99.90;;;;;;4982555;28;20037;-67
2023/12/31 07:26:26;;;;;;;3.83;1.20;;;7.90;99.90;;;;;;4979794;28;20026;-67
2023/12/31 07:28:52;;;;;;;4.63;0.88;;;8.00;99.90;;;;;;4986716;28;20080;-65
2023/12/31 07:31:18;;;;;;;6.15;1.58;;;8.00;99.90;;;;;;4984419;28;20060;-67
2023/12/31 07:33:43;;;;;;;2.67;1.25;;;8.10;99.90;;;;;;4986483;28;20088;-67
2023/12/31 07:36:09;;;;;;;1.40;0.90;;;8.10;99.90;;;;;;4986171;28;20636;-67
2023/12/31 07:38:35;;;;;;;4.00;1.15;;;8.10;99.90;;;;;;4980493;28;20042;-66
2023/12/31 07:41:01;;;;;;;1.35;1.05;;;8.10;99.90;;;;;;4986594;28;20080;-67
2023/12/31 07:43:26;;;;;;;4.68;1.55;;;8.10;99.90;;;;;;4986446;28;20117;-66
2023/12/31 07:45:52;;;;;;;1.77;1.00;;;8.20;99.90;;;;;;4986871;28;20132;-66
2023/12/31 07:48:19;;;;;;;5.45;1.30;;;8.30;99.90;;;;;;4986836;28;20066;-67
2023/12/31 07:50:45;;;;;;;2.97;1.30;;;8.30;99.90;;;;;;4986467;28;20038;-67
2023/12/31 07:53:10;;;;;;;1.38;0.73;;;8.30;99.90;;;;;;4985711;28;20069;-66
2023/12/31 07:55:36;;;;;;;2.97;0.90;;;8.30;99.90;;;;;;4986155;28;20032;-67
2023/12/31 07:58:02;;;;;;;3.03;1.17;;;8.40;99.90;;;;;;4985034;28;20773;-67
2023/12/31 08:00:28;;;;;;;3.60;1.30;;;8.40;99.90;;;;;;4986231;28;20038;-64
2023/12/31 08:02:54;;;;;;;3.33;1.17;;;8.40;99.90;;;;;;4983666;28;20023;-65
2023/12/31 08:05:19;;;;;;;2.08;1.10;;;8.40;99.90;;;;;;4981766;28;20796;-65
2023/12/31 08:07:45;;;;;;;3.70;1.00;;;8.50;99.90;;;;;;4985433;28;20038;-65
2023/12/31 08:10:11;;;;;;;1.50;0.82;;;8.40;99.90;;;;;;4986079;28;20034;-65
2023/12/31 08:12:37;;;;;;;3.85;1.08;;;8.50;99.90;;;;;;4985863;28;20034;-66
2023/12/31 08:15:04;;;;;;;1.38;1.00;;;8.50;99.90;;;;;;4969264;28;20049;-66
2023/12/31 08:17:30;;;;;;;2.22;1.10;;;8.50;99.90;;;;;;4974787;28;20110;-65
2023/12/31 08:19:56;;;;;;;1.27;0.90;;;8.50;99.90;;;;;;4984763;28;20031;-65
2023/12/31 08:22:21;;;;;;;4.00;1.10;;;8.50;99.90;;;;;;4984343;28;20034;-64
2023/12/31 08:24:47;;;;;;;2.85;1.15;;;8.40;99.90;;;;;;4983897;28;20114;-65
2023/12/31 08:27:13;;;;;;;2.55;1.00;;;8.30;99.90;;;;;;4984636;28;20494;-66
2023/12/31 08:29:40;;;;;;;3.22;1.25;;;8.30;99.90;;;;;;4985771;28;20560;-65
2023/12/31 08:32:05;;;;;;;4.80;1.17;;;8.30;99.90;;;;;;4984909;28;20045;-68
2023/12/31 08:34:31;;;;;;;3.60;1.08;;;8.40;99.90;;;;;;4978320;28;20402;-64
2023/12/31 08:36:57;;;;;;;2.88;0.85;;;8.50;99.90;;;;;;4977106;28;20428;-69
2023/12/31 08:39:23;;;;;;;1.35;0.90;;;8.50;99.90;;;;;;4985800;28;20034;-64
2023/12/31 08:41:49;;;;;;;3.85;1.55;;;8.60;99.90;;;;;;4985645;28;20050;-64
2023/12/31 08:44:14;;;;;;;1.33;0.82;;;8.70;99.90;;;;;;4978234;28;20035;-65
2023/12/31 08:46:41;;;;;;;4.18;1.40;;;8.80;99.90;;;;;;4985714;28;20470;-65
2023/12/31 08:49:07;;;;;;;4.22;1.33;;;8.80;99.90;;;;;;4980876;28;20045;-65
2023/12/31 08:51:33;;;;;;;3.63;1.08;;;8.80;99.90;;;;;;4975530;28;20053;-65
2023/12/31 08:53:58;;;;;;;2.83;1.02;;;8.80;99.90;;;;;;4982328;28;20600;-65
2023/12/31 08:56:24;;;;;;;2.92;1.15;;;8.80;99.90;;;;;;4984287;28;20026;-64
2023/12/31 08:58:50;;;;;;;2.90;0.93;;;8.90;99.90;;;;;;4985357;28;20666;-65
2023/12/31 09:01:18;;;;;;;4.82;1.10;;;9.00;99.90;;;;;;4985424;28;20030;-64
2023/12/31 09:03:44;;;;;;;2.97;0.85;;;9.00;99.90;;;;;;4983703;28;20027;-64
2023/12/31 09:06:12;;;;;;;1.50;1.05;;;9.10;99.90;;;;;;4988217;28;20144;-64
2023/12/31 09:08:38;;;;;;;2.60;1.25;;;9.10;99.90;;;;;;4987717;28;20030;-65
2023/12/31 09:11:04;;;;;;;2.92;1.50;;;9.00;99.90;;;;;;4977408;28;20126;-65
2023/12/31 09:13:30;;;;;;;4.93;1.10;;;9.00;99.90;;;;;;4987201;28;20060;-64
2023/12/31 09:15:55;;;;;;;3.40;0.93;;;9.00;99.90;;;;;;4974224;28;20487;-64
2023/12/31 09:18:23;;;;;;;2.35;1.30;;;9.00;99.90;;;;;;4989270;28;20038;-64
2023/12/31 09:20:49;;;;;;;2.50;1.10;;;9.00;99.90;;;;;;4987288;28;20027;-63
2023/12/31 09:23:17;;;;;;;2.55;1.23;;;8.90;99.90;;;;;;4984299;28;20034;-65
2023/12/31 09:25:44;;;;;;;3.88;1.30;;;8.90;99.90;;;;;;4984338;28;20529;-66
2023/12/31 09:28:10;;;;;;;3.05;1.30;;;8.90;99.90;;;;;;4988884;28;20034;-65
2023/12/31 09:30:36;;;;;;;3.60;1.30;;;8.90;99.90;;;;;;4984896;28;20041;-65
2023/12/31 09:33:01;;;;;;;2.03;0.95;;;8.90;99.90;;;;;;4980953;28;20034;-65
2023/12/31 09:35:27;;;;;;;1.70;0.98;;;8.90;99.90;;;;;;4988699;28;20022;-65
2023/12/31 09:37:53;;;;;;;2.67;1.08;;;8.90;99.90;;;;;;4988735;28;20030;-65
2023/12/31 09:40:19;;;;;;;4.22;1.25;;;8.90;99.90;;;;;;4987353;28;20060;-65
2023/12/31 09:42:49;;;;;;;3.35;1.30;;;8.90;99.90;;;;;;4988846;28;20030;-65
2023/12/31 09:45:21;;;;;;;3.53;1.20;;;9.00;99.90;;;;;;4987677;28;20057;-66
2023/12/31 09:47:48;;;;;;;5.25;1.83;;;9.00;99.90;;;;;;4987385;28;20041;-66
2023/12/31 09:50:21;;;;;;;2.97;1.17;;;9.00;99.90;;;;;;4985952;28;20034;-65
2023/12/31 09:52:48;;;;;;;2.47;1.20;;;9.00;99.90;;;;;;4982775;28;20045;-65
2023/12/31 09:55:18;;;;;;;2.58;1.67;;;9.10;99.90;;;;;;4978370;28;20137;-65
2023/12/31 09:57:50;;;;;;;3.65;1.52;;;9.00;99.90;;;;;;4988078;28;20050;-64
2023/12/31 10:00:16;;;;;;;4.38;1.73;;;9.00;99.90;;;;;;4984610;28;20069;-65
2023/12/31 10:02:43;;;;;;;3.78;1.23;;;9.10;99.90;;;;;;4982677;28;20058;-65
2023/12/31 10:05:10;;;;;;;3.20;1.55;;;9.00;99.90;;;;;;4982320;28;20034;-65
2023/12/31 10:07:35;;;;;;;4.60;1.52;;;9.20;99.90;;;;;;4988113;28;20030;-66
2023/12/31 10:10:03;;;;;;;1.75;1.50;;;9.30;99.90;;;;;;4981480;28;20407;-65
2023/12/31 10:12:30;;;;;;;1.58;1.20;;;9.50;99.90;;;;;;4986058;28;20039;-65
2023/12/31 10:14:55;;;;;;;4.47;1.60;;;9.50;99.90;;;;;;4987753;28;20477;-64
2023/12/31 10:17:21;;;;;;;3.65;1.58;;;9.50;99.90;;;;;;4988316;28;20049;-63
2023/12/31 10:19:47;;;;;;;2.90;1.50;;;9.60;99.90;;;;;;4987971;28;20061;-64
2023/12/31 10:22:14;;;;;;;4.18;1.50;;;9.60;99.90;;;;;;4988059;28;20042;-64
2023/12/31 10:24:41;;;;;;;2.20;1.25;;;9.70;99.90;;;;;;4988438;28;20033;-64
2023/12/31 10:27:09;;;;;;;4.07;1.70;;;9.70;99.90;;;;;;4988181;28;20034;-64
2023/12/31 10:29:38;;;;;;;1.73;1.30;;;9.70;99.90;;;;;;4984190;28;20030;-64
2023/12/31 10:32:05;;;;;;;9.27;1.70;;;9.60;99.90;;;;;;4987432;28;20038;-70
2023/12/31 10:34:31;;;;;;;2.40;1.40;;;9.70;99.90;;;;;;4978907;28;20034;-65
2023/12/31 10:37:05;;;;;;;1.38;1.20;;;9.70;99.90;;;;;;4970890;28;20150;-62
2023/12/31 10:39:41;;;;;;;2.38;1.38;;;9.90;99.90;;;;;;4977575;28;20050;-64
2023/12/31 10:42:07;;;;;;;3.78;1.75;;;10.00;99.90;;;;;;4979421;28;20494;-64
2023/12/31 10:44:34;;;;;;;3.92;1.40;;;10.20;99.90;;;;;;4987376;28;20125;-65
2023/12/31 10:47:05;;;;;;;2.05;1.42;;;10.30;99.90;;;;;;4985285;28;20069;-64
2023/12/31 10:49:32;;;;;;;4.13;1.55;;;10.40;99.90;;;;;;4976600;28;20407;-64
2023/12/31 10:52:05;;;;;;;5.22;2.60;;;10.60;99.90;;;;;;4974960;28;20038;-65
2023/12/31 10:54:51;;;;;;;4.30;1.95;;;10.50;99.90;;;;;;4985936;28;20038;-64
2023/12/31 10:57:20;;;;;;;2.33;1.30;;;10.50;99.90;;;;;;4985408;28;20045;-64
2023/12/31 10:59:47;;;;;;;3.15;1.60;;;10.40;99.90;;;;;;4982779;28;20035;-64
2023/12/31 11:02:21;;;;;;;2.55;1.50;;;10.40;99.90;;;;;;4985983;28;20026;-64
2023/12/31 11:04:48;;;;;;;2.00;1.25;;;10.40;99.90;;;;;;4987299;28;20037;-64
2023/12/31 11:07:19;;;;;;;4.50;1.95;;;10.50;99.90;;;;;;4982863;28;20491;-64
2023/12/31 11:09:48;;;;;;;4.57;2.00;;;10.50;99.90;;;;;;4985535;28;20117;-64
2023/12/31 11:12:15;;;;;;;2.22;1.52;;;10.40;99.90;;;;;;4986761;28;20039;-64
2023/12/31 11:14:46;;;;;;;5.60;2.88;;;10.30;99.90;;;;;;4985875;28;20096;-64
2023/12/31 11:17:24;;;;;;;8.55;4.00;;;10.20;99.90;;;;;;4973199;28;20057;-65
2023/12/31 11:20:18;;;;;;;8.30;2.50;;;10.20;99.90;;;;;;4974631;28;20121;-65
2023/12/31 11:23:23;;;;;;;2.67;1.42;;;10.20;99.90;;;;;;4976615;28;20049;-66
2023/12/31 11:25:49;;;;;;;5.60;3.55;;;10.20;99.90;;;;;;4977286;28;20085;-63
2023/12/31 11:28:19;;;;;;;3.28;1.85;;;10.10;99.90;;;;;;4978928;28;20133;-64
2023/12/31 11:30:47;;;;;;;4.30;1.58;;;10.20;99.90;;;;;;4975386;28;20027;-65
2023/12/31 11:33:21;;;;;;;2.47;1.40;;;10.20;99.90;;;;;;4985581;28;20026;-66
2023/12/31 11:35:51;;;;;;;3.25;1.95;;;10.30;99.90;;;;;;4975780;28;20458;-63
2023/12/31 11:38:19;;;;;;;3.70;1.33;;;10.20;99.90;;;;;;4979402;28;20084;-63
2023/12/31 11:40:45;;;;;;;1.88;1.23;;;10.40;99.90;;;;;;4984214;28;20030;-65
2023/12/31 11:43:13;;;;;;;2.33;1.65;;;10.50;99.90;;;;;;4985053;28;20033;-65
2023/12/31 11:45:43;;;;;;;3.03;1.40;;;10.60;99.90;;;;;;4986300;28;20075;-65
2023/12/31 11:48:25;;;;;;;5.75;1.33;;;10.60;99.90;;;;;;4985458;28;20042;-64
2023/12/31 11:50:51;;;;;;;2.67;1.10;;;10.50;99.90;;;;;;4972118;28;20114;-64
2023/12/31 11:53:17;;;;;;;2.63;1.08;;;10.50;99.90;;;;;;4981417;28;20022;-64
2023/12/31 11:55:43;;;;;;;2.28;1.10;;;10.40;99.90;;;;;;4974190;28;20030;-65
2023/12/31 11:58:09;;;;;;;2.78;1.13;;;10.40;99.90;;;;;;4983110;28;20026;-65
2023/12/31 12:00:35;;;;;;;1.77;1.30;;;10.50;99.90;;;;;;4985922;28;20750;-65
2023/12/31 12:03:07;;;;;;;2.35;1.20;;;10.50;99.90;;;;;;4984716;28;20031;-65
2023/12/31 12:05:33;;;;;;;1.88;0.90;;;10.60;99.90;;;;;;4984732;28;20693;-65
2023/12/31 12:08:02;;;;;;;3.08;1.23;;;10.60;99.90;;;;;;4978331;28;20038;-65
2023/12/31 12:10:28;;;;;;;1.75;1.10;;;10.70;99.90;;;;;;4985915;28;20560;-65
2023/12/31 12:12:56;;;;;;;1.88;1.10;;;10.80;99.90;;;;;;4976751;28;20042;-64
2023/12/31 12:15:22;;;;;;;2.00;1.10;;;10.80;99.90;;;;;;4985791;28;20042;-64
2023/12/31 12:17:48;;;;;;;4.50;1.27;;;10.80;99.90;;;;;;4981411;28;20550;-65
2023/12/31 12:20:14;;;;;;;2.13;1.30;;;10.70;99.90;;;;;;4981020;28;20085;-65
2023/12/31 12:22:40;;;;;;;3.03;1.15;;;10.70;99.90;;;;;;4977862;28;20027;-65
2023/12/31 12:25:07;;;;;;;2.13;1.00;;;10.60;99.90;;;;;;4983816;28;20053;-64
2023/12/31 12:27:36;;;;;;;2.70;0.90;;;10.70;99.90;;;;;;4979902;28;20137;-65
2023/12/31 12:30:02;;;;;;;1.25;0.82;;;10.70;99.90;;;;;;4972824;28;20030;-64
2023/12/31 12:32:28;;;;;;;3.53;1.33;;;10.70;99.90;;;;;;4984516;28;20038;-64
2023/12/31 12:34:59;;;;;;;4.03;1.10;;;10.80;99.90;;;;;;4979530;28;20042;-66
2023/12/31 12:37:25;;;;;;;1.55;0.98;;;10.80;99.90;;;;;;4983890;28;20046;-64
2023/12/31 12:39:55;;;;;;;1.33;0.80;;;10.70;99.90;;;;;;4984681;28;20030;-64
2023/12/31 12:42:25;;;;;;;2.15;1.10;;;10.70;99.90;;;;;;4989758;28;20026;-65
2023/12/31 12:44:50;;;;;;;1.13;0.80;;;10.50;99.90;;;;;;4985123;28;20037;-64
2023/12/31 12:47:18;;;;;;;2.67;1.02;;;10.50;99.90;;;;;;4987478;28;20030;-64
2023/12/31 12:49:44;;;;;;;2.22;1.20;;;10.50;99.90;;;;;;4987547;28;20065;-64
2023/12/31 12:52:10;;;;;;;1.45;0.90;;;10.50;99.90;;;;;;4985353;28;20142;-64